sensor_id;sensor_type;location;lat;lon;timestamp;P1;durP1;ratioP1;P2;durP2;ratioP2
32637;SDS011;19045;52.268;10.506;2023-04-03T00:00:05;6.15;;;2.60;;
32637;SDS011;19045;52.268;10.506;2023-04-03T00:02:33;8.32;;;2.10;;
32637;SDS011;19045;52.268;10.506;2023-04-03T00:04:59;12.48;;;2.90;;
32637;SDS011;19045;52.268;10.506;2023-04-03T00:07:27;10.50;;;2.97;;
32637;SDS011;19045;52.268;10.506;2023-04-03T00:09:54;6.78;;;2.33;;
32637;SDS011;19045;52.268;10.506;2023-04-03T00:12:21;16.42;;;3.47;;
32637;SDS011;19045;52.268;10.506;2023-04-03T00:14:47;12.15;;;2.90;;
32637;SDS011;19045;52.268;10.506;2023-04-03T00:17:14;6.97;;;2.50;;
32637;SDS011;19045;52.268;10.506;2023-04-03T00:19:40;8.25;;;2.80;;
32637;SDS011;19045;52.268;10.506;2023-04-03T00:22:07;8.48;;;2.85;;
32637;SDS011;19045;52.268;10.506;2023-04-03T00:24:35;8.73;;;3.20;;
32637;SDS011;19045;52.268;10.506;2023-04-03T00:27:02;9.45;;;3.60;;
32637;SDS011;19045;52.268;10.506;2023-04-03T00:29:28;7.70;;;2.67;;
32637;SDS011;19045;52.268;10.506;2023-04-03T00:31:55;7.75;;;3.15;;
32637;SDS011;19045;52.268;10.506;2023-04-03T00:34:21;10.32;;;3.42;;
32637;SDS011;19045;52.268;10.506;2023-04-03T00:36:48;7.97;;;2.95;;
32637;SDS011;19045;52.268;10.506;2023-04-03T00:39:16;11.18;;;3.00;;
32637;SDS011;19045;52.268;10.506;2023-04-03T00:41:44;7.88;;;3.28;;
32637;SDS011;19045;52.268;10.506;2023-04-03T00:44:21;6.60;;;2.40;;
32637;SDS011;19045;52.268;10.506;2023-04-03T00:46:48;5.50;;;2.75;;
32637;SDS011;19045;52.268;10.506;2023-04-03T00:49:15;7.63;;;3.05;;
32637;SDS011;19045;52.268;10.506;2023-04-03T00:51:42;10.13;;;2.67;;
32637;SDS011;19045;52.268;10.506;2023-04-03T00:54:09;8.57;;;3.15;;
32637;SDS011;19045;52.268;10.506;2023-04-03T00:56:36;4.97;;;2.40;;
32637;SDS011;19045;52.268;10.506;2023-04-03T00:59:06;7.05;;;2.80;;
32637;SDS011;19045;52.268;10.506;2023-04-03T01:01:36;10.35;;;2.72;;
32637;SDS011;19045;52.268;10.506;2023-04-03T01:04:04;8.98;;;3.22;;
32637;SDS011;19045;52.268;10.506;2023-04-03T01:06:32;12.45;;;3.10;;
32637;SDS011;19045;52.268;10.506;2023-04-03T01:09:02;16.73;;;3.08;;
32637;SDS011;19045;52.268;10.506;2023-04-03T01:11:29;5.45;;;2.33;;
32637;SDS011;19045;52.268;10.506;2023-04-03T01:13:56;10.95;;;2.58;;
32637;SDS011;19045;52.268;10.506;2023-04-03T01:16:24;11.68;;;3.42;;
32637;SDS011;19045;52.268;10.506;2023-04-03T01:18:51;10.15;;;3.60;;
32637;SDS011;19045;52.268;10.506;2023-04-03T01:24:32;9.27;;;3.10;;
32637;SDS011;19045;52.268;10.506;2023-04-03T01:29:28;9.65;;;2.60;;
32637;SDS011;19045;52.268;10.506;2023-04-03T01:31:57;9.85;;;3.08;;
32637;SDS011;19045;52.268;10.506;2023-04-03T01:34:25;8.50;;;2.67;;
32637;SDS011;19045;52.268;10.506;2023-04-03T01:36:52;8.68;;;2.90;;
32637;SDS011;19045;52.268;10.506;2023-04-03T01:39:19;8.52;;;2.65;;
32637;SDS011;19045;52.268;10.506;2023-04-03T01:41:46;13.30;;;2.78;;
32637;SDS011;19045;52.268;10.506;2023-04-03T01:44:12;8.32;;;2.78;;
32637;SDS011;19045;52.268;10.506;2023-04-03T01:46:39;10.52;;;2.83;;
32637;SDS011;19045;52.268;10.506;2023-04-03T01:49:08;10.13;;;3.15;;
32637;SDS011;19045;52.268;10.506;2023-04-03T01:51:36;5.07;;;2.38;;
32637;SDS011;19045;52.268;10.506;2023-04-03T01:54:02;11.93;;;2.88;;
32637;SDS011;19045;52.268;10.506;2023-04-03T01:56:29;8.73;;;2.67;;
32637;SDS011;19045;52.268;10.506;2023-04-03T01:58:55;5.22;;;2.47;;
32637;SDS011;19045;52.268;10.506;2023-04-03T02:01:22;12.40;;;3.10;;
32637;SDS011;19045;52.268;10.506;2023-04-03T02:03:49;4.82;;;2.42;;
32637;SDS011;19045;52.268;10.506;2023-04-03T02:06:17;10.82;;;2.58;;
32637;SDS011;19045;52.268;10.506;2023-04-03T02:08:43;9.23;;;2.80;;
32637;SDS011;19045;52.268;10.506;2023-04-03T02:11:10;10.65;;;3.25;;
32637;SDS011;19045;52.268;10.506;2023-04-03T02:13:36;10.75;;;3.10;;
32637;SDS011;19045;52.268;10.506;2023-04-03T02:16:07;9.43;;;3.28;;
32637;SDS011;19045;52.268;10.506;2023-04-03T02:18:35;12.80;;;3.85;;
32637;SDS011;19045;52.268;10.506;2023-04-03T02:21:01;10.77;;;4.93;;
32637;SDS011;19045;52.268;10.506;2023-04-03T02:23:30;13.43;;;3.30;;
32637;SDS011;19045;52.268;10.506;2023-04-03T02:26:02;9.48;;;2.85;;
32637;SDS011;19045;52.268;10.506;2023-04-03T02:28:31;9.55;;;3.45;;
32637;SDS011;19045;52.268;10.506;2023-04-03T02:30:57;10.00;;;3.55;;
32637;SDS011;19045;52.268;10.506;2023-04-03T02:33:24;11.48;;;2.90;;
32637;SDS011;19045;52.268;10.506;2023-04-03T02:35:52;9.13;;;3.20;;
32637;SDS011;19045;52.268;10.506;2023-04-03T02:38:19;12.50;;;3.35;;
32637;SDS011;19045;52.268;10.506;2023-04-03T02:40:47;8.05;;;2.63;;
32637;SDS011;19045;52.268;10.506;2023-04-03T02:43:14;5.95;;;3.05;;
32637;SDS011;19045;52.268;10.506;2023-04-03T02:45:41;9.52;;;3.08;;
32637;SDS011;19045;52.268;10.506;2023-04-03T02:48:07;9.70;;;3.08;;
32637;SDS011;19045;52.268;10.506;2023-04-03T02:50:34;16.73;;;2.90;;
32637;SDS011;19045;52.268;10.506;2023-04-03T02:53:01;11.88;;;2.95;;
32637;SDS011;19045;52.268;10.506;2023-04-03T02:55:28;10.13;;;3.95;;
32637;SDS011;19045;52.268;10.506;2023-04-03T02:57:56;10.80;;;3.03;;
32637;SDS011;19045;52.268;10.506;2023-04-03T03:00:22;7.95;;;3.13;;
32637;SDS011;19045;52.268;10.506;2023-04-03T03:02:49;8.18;;;3.22;;
32637;SDS011;19045;52.268;10.506;2023-04-03T03:05:15;9.25;;;3.35;;
32637;SDS011;19045;52.268;10.506;2023-04-03T03:07:42;11.13;;;3.15;;
32637;SDS011;19045;52.268;10.506;2023-04-03T03:10:09;7.28;;;3.40;;
32637;SDS011;19045;52.268;10.506;2023-04-03T03:12:35;12.10;;;3.60;;
32637;SDS011;19045;52.268;10.506;2023-04-03T03:15:04;12.48;;;3.30;;
32637;SDS011;19045;52.268;10.506;2023-04-03T03:17:31;13.80;;;3.72;;
32637;SDS011;19045;52.268;10.506;2023-04-03T03:19:57;9.48;;;3.45;;
32637;SDS011;19045;52.268;10.506;2023-04-03T03:22:25;8.43;;;3.00;;
32637;SDS011;19045;52.268;10.506;2023-04-03T03:24:52;9.05;;;3.60;;
32637;SDS011;19045;52.268;10.506;2023-04-03T03:27:18;7.68;;;2.80;;
32637;SDS011;19045;52.268;10.506;2023-04-03T03:29:45;6.82;;;3.20;;
32637;SDS011;19045;52.268;10.506;2023-04-03T03:32:13;8.00;;;3.35;;
32637;SDS011;19045;52.268;10.506;2023-04-03T03:34:40;13.13;;;3.80;;
32637;SDS011;19045;52.268;10.506;2023-04-03T03:37:07;11.25;;;3.65;;
32637;SDS011;19045;52.268;10.506;2023-04-03T03:39:33;8.63;;;2.95;;
32637;SDS011;19045;52.268;10.506;2023-04-03T03:42:00;9.18;;;2.88;;
32637;SDS011;19045;52.268;10.506;2023-04-03T03:44:27;8.15;;;2.70;;
32637;SDS011;19045;52.268;10.506;2023-04-03T03:46:54;7.88;;;3.08;;
32637;SDS011;19045;52.268;10.506;2023-04-03T03:49:22;8.48;;;2.80;;
32637;SDS011;19045;52.268;10.506;2023-04-03T03:51:49;15.80;;;3.10;;
32637;SDS011;19045;52.268;10.506;2023-04-03T03:54:16;4.93;;;2.90;;
32637;SDS011;19045;52.268;10.506;2023-04-03T03:56:43;6.85;;;2.50;;
32637;SDS011;19045;52.268;10.506;2023-04-03T03:59:11;11.70;;;3.22;;
32637;SDS011;19045;52.268;10.506;2023-04-03T04:01:37;8.30;;;2.47;;
32637;SDS011;19045;52.268;10.506;2023-04-03T04:04:04;14.45;;;3.03;;
32637;SDS011;19045;52.268;10.506;2023-04-03T04:06:32;10.35;;;2.70;;
32637;SDS011;19045;52.268;10.506;2023-04-03T04:08:59;9.13;;;2.88;;
32637;SDS011;19045;52.268;10.506;2023-04-03T04:11:26;10.15;;;3.78;;
32637;SDS011;19045;52.268;10.506;2023-04-03T04:13:53;8.90;;;3.35;;
32637;SDS011;19045;52.268;10.506;2023-04-03T04:16:19;10.10;;;3.00;;
32637;SDS011;19045;52.268;10.506;2023-04-03T04:18:46;8.70;;;3.10;;
32637;SDS011;19045;52.268;10.506;2023-04-03T04:21:13;5.82;;;2.70;;
32637;SDS011;19045;52.268;10.506;2023-04-03T04:23:41;9.18;;;3.08;;
32637;SDS011;19045;52.268;10.506;2023-04-03T04:26:07;11.55;;;3.38;;
32637;SDS011;19045;52.268;10.506;2023-04-03T04:28:34;5.70;;;2.97;;
32637;SDS011;19045;52.268;10.506;2023-04-03T04:31:01;12.82;;;2.63;;
32637;SDS011;19045;52.268;10.506;2023-04-03T04:33:27;10.98;;;3.17;;
32637;SDS011;19045;52.268;10.506;2023-04-03T04:35:54;8.60;;;3.20;;
32637;SDS011;19045;52.268;10.506;2023-04-03T04:38:20;7.75;;;3.10;;
32637;SDS011;19045;52.268;10.506;2023-04-03T04:40:49;12.30;;;4.07;;
32637;SDS011;19045;52.268;10.506;2023-04-03T04:43:16;8.73;;;3.10;;
32637;SDS011;19045;52.268;10.506;2023-04-03T04:45:43;8.95;;;3.03;;
32637;SDS011;19045;52.268;10.506;2023-04-03T04:48:10;9.82;;;3.25;;
32637;SDS011;19045;52.268;10.506;2023-04-03T04:50:36;8.73;;;3.58;;
32637;SDS011;19045;52.268;10.506;2023-04-03T04:53:03;9.57;;;2.92;;
32637;SDS011;19045;52.268;10.506;2023-04-03T04:55:30;9.65;;;3.33;;
32637;SDS011;19045;52.268;10.506;2023-04-03T04:57:58;7.05;;;3.10;;
32637;SDS011;19045;52.268;10.506;2023-04-03T05:00:25;11.18;;;3.40;;
32637;SDS011;19045;52.268;10.506;2023-04-03T05:02:52;14.80;;;3.85;;
32637;SDS011;19045;52.268;10.506;2023-04-03T05:05:18;10.88;;;3.42;;
32637;SDS011;19045;52.268;10.506;2023-04-03T05:07:45;11.35;;;4.13;;
32637;SDS011;19045;52.268;10.506;2023-04-03T05:10:11;12.20;;;3.95;;
32637;SDS011;19045;52.268;10.506;2023-04-03T05:12:38;9.07;;;3.30;;
32637;SDS011;19045;52.268;10.506;2023-04-03T05:15:06;9.55;;;3.80;;
32637;SDS011;19045;52.268;10.506;2023-04-03T05:17:34;15.60;;;4.30;;
32637;SDS011;19045;52.268;10.506;2023-04-03T05:20:01;7.90;;;3.28;;
32637;SDS011;19045;52.268;10.506;2023-04-03T05:22:28;16.92;;;3.78;;
32637;SDS011;19045;52.268;10.506;2023-04-03T05:24:55;9.85;;;3.10;;
32637;SDS011;19045;52.268;10.506;2023-04-03T05:27:23;12.32;;;3.10;;
32637;SDS011;19045;52.268;10.506;2023-04-03T05:29:53;12.55;;;3.35;;
32637;SDS011;19045;52.268;10.506;2023-04-03T05:32:21;13.48;;;3.50;;
32637;SDS011;19045;52.268;10.506;2023-04-03T05:34:48;12.43;;;3.00;;
32637;SDS011;19045;52.268;10.506;2023-04-03T05:37:15;10.70;;;3.35;;
32637;SDS011;19045;52.268;10.506;2023-04-03T05:39:41;11.20;;;3.38;;
32637;SDS011;19045;52.268;10.506;2023-04-03T05:42:08;6.53;;;3.10;;
32637;SDS011;19045;52.268;10.506;2023-04-03T05:44:36;9.05;;;3.03;;
32637;SDS011;19045;52.268;10.506;2023-04-03T05:47:03;12.15;;;3.35;;
32637;SDS011;19045;52.268;10.506;2023-04-03T05:49:34;7.25;;;2.97;;
32637;SDS011;19045;52.268;10.506;2023-04-03T05:52:05;6.45;;;3.03;;
32637;SDS011;19045;52.268;10.506;2023-04-03T05:54:32;8.02;;;3.00;;
32637;SDS011;19045;52.268;10.506;2023-04-03T05:56:59;10.77;;;3.20;;
32637;SDS011;19045;52.268;10.506;2023-04-03T05:59:25;12.07;;;3.45;;
32637;SDS011;19045;52.268;10.506;2023-04-03T06:01:52;8.32;;;2.92;;
32637;SDS011;19045;52.268;10.506;2023-04-03T06:04:19;10.48;;;3.47;;
32637;SDS011;19045;52.268;10.506;2023-04-03T06:06:48;7.32;;;3.13;;
32637;SDS011;19045;52.268;10.506;2023-04-03T06:09:18;8.73;;;3.07;;
32637;SDS011;19045;52.268;10.506;2023-04-03T06:11:46;12.93;;;3.05;;
32637;SDS011;19045;52.268;10.506;2023-04-03T06:14:13;6.13;;;2.58;;
32637;SDS011;19045;52.268;10.506;2023-04-03T06:16:40;11.75;;;2.90;;
32637;SDS011;19045;52.268;10.506;2023-04-03T06:19:07;10.50;;;2.45;;
32637;SDS011;19045;52.268;10.506;2023-04-03T06:21:34;11.63;;;2.97;;
32637;SDS011;19045;52.268;10.506;2023-04-03T06:24:03;12.95;;;3.20;;
32637;SDS011;19045;52.268;10.506;2023-04-03T06:26:31;6.85;;;2.42;;
32637;SDS011;19045;52.268;10.506;2023-04-03T06:29:00;10.57;;;2.92;;
32637;SDS011;19045;52.268;10.506;2023-04-03T06:31:27;7.53;;;2.97;;
32637;SDS011;19045;52.268;10.506;2023-04-03T06:33:54;8.70;;;2.97;;
32637;SDS011;19045;52.268;10.506;2023-04-03T06:36:21;9.27;;;2.70;;
32637;SDS011;19045;52.268;10.506;2023-04-03T06:38:48;7.20;;;2.20;;
32637;SDS011;19045;52.268;10.506;2023-04-03T06:41:16;8.85;;;2.58;;
32637;SDS011;19045;52.268;10.506;2023-04-03T06:43:44;10.10;;;3.17;;
32637;SDS011;19045;52.268;10.506;2023-04-03T06:46:12;7.80;;;2.60;;
32637;SDS011;19045;52.268;10.506;2023-04-03T06:48:41;8.80;;;2.83;;
32637;SDS011;19045;52.268;10.506;2023-04-03T06:51:10;10.32;;;2.55;;
32637;SDS011;19045;52.268;10.506;2023-04-03T06:53:43;7.93;;;2.25;;
32637;SDS011;19045;52.268;10.506;2023-04-03T06:56:09;8.52;;;2.67;;
32637;SDS011;19045;52.268;10.506;2023-04-03T06:58:37;9.70;;;2.53;;
32637;SDS011;19045;52.268;10.506;2023-04-03T07:01:04;5.35;;;2.25;;
32637;SDS011;19045;52.268;10.506;2023-04-03T07:03:31;12.60;;;3.05;;
32637;SDS011;19045;52.268;10.506;2023-04-03T07:05:57;8.43;;;2.80;;
32637;SDS011;19045;52.268;10.506;2023-04-03T07:08:24;7.90;;;2.38;;
32637;SDS011;19045;52.268;10.506;2023-04-03T07:10:51;5.28;;;2.25;;
32637;SDS011;19045;52.268;10.506;2023-04-03T07:13:17;7.28;;;2.92;;
32637;SDS011;19045;52.268;10.506;2023-04-03T07:15:46;9.95;;;2.90;;
32637;SDS011;19045;52.268;10.506;2023-04-03T07:18:13;10.90;;;3.35;;
32637;SDS011;19045;52.268;10.506;2023-04-03T07:20:39;5.35;;;2.30;;
32637;SDS011;19045;52.268;10.506;2023-04-03T07:23:06;7.88;;;2.50;;
32637;SDS011;19045;52.268;10.506;2023-04-03T07:25:33;6.53;;;2.92;;
32637;SDS011;19045;52.268;10.506;2023-04-03T07:27:59;4.97;;;2.13;;
32637;SDS011;19045;52.268;10.506;2023-04-03T07:30:26;9.35;;;2.40;;
32637;SDS011;19045;52.268;10.506;2023-04-03T07:32:55;9.18;;;2.20;;
32637;SDS011;19045;52.268;10.506;2023-04-03T07:35:21;6.05;;;2.20;;
32637;SDS011;19045;52.268;10.506;2023-04-03T07:37:48;8.95;;;2.58;;
32637;SDS011;19045;52.268;10.506;2023-04-03T07:40:15;10.70;;;2.42;;
32637;SDS011;19045;52.268;10.506;2023-04-03T07:42:41;12.52;;;2.83;;
32637;SDS011;19045;52.268;10.506;2023-04-03T07:45:08;8.57;;;2.58;;
32637;SDS011;19045;52.268;10.506;2023-04-03T07:47:35;5.75;;;2.38;;
32637;SDS011;19045;52.268;10.506;2023-04-03T07:50:04;10.40;;;2.58;;
32637;SDS011;19045;52.268;10.506;2023-04-03T07:52:31;12.15;;;2.95;;
32637;SDS011;19045;52.268;10.506;2023-04-03T07:54:58;10.90;;;2.72;;
32637;SDS011;19045;52.268;10.506;2023-04-03T07:57:24;6.90;;;2.50;;
32637;SDS011;19045;52.268;10.506;2023-04-03T07:59:51;6.90;;;2.15;;
32637;SDS011;19045;52.268;10.506;2023-04-03T08:02:18;5.97;;;2.05;;
32637;SDS011;19045;52.268;10.506;2023-04-03T08:04:45;4.40;;;1.48;;
32637;SDS011;19045;52.268;10.506;2023-04-03T08:07:13;7.30;;;1.98;;
32637;SDS011;19045;52.268;10.506;2023-04-03T08:09:40;7.18;;;2.03;;
32637;SDS011;19045;52.268;10.506;2023-04-03T08:12:07;4.15;;;1.70;;
32637;SDS011;19045;52.268;10.506;2023-04-03T08:14:36;4.60;;;1.38;;
32637;SDS011;19045;52.268;10.506;2023-04-03T08:17:03;5.20;;;1.58;;
32637;SDS011;19045;52.268;10.506;2023-04-03T08:19:34;7.80;;;1.90;;
32637;SDS011;19045;52.268;10.506;2023-04-03T08:22:01;4.43;;;1.55;;
32637;SDS011;19045;52.268;10.506;2023-04-03T08:24:29;5.82;;;1.67;;
32637;SDS011;19045;52.268;10.506;2023-04-03T08:26:56;6.35;;;1.50;;
32637;SDS011;19045;52.268;10.506;2023-04-03T08:29:23;4.22;;;1.40;;
32637;SDS011;19045;52.268;10.506;2023-04-03T08:31:51;5.00;;;1.65;;
32637;SDS011;19045;52.268;10.506;2023-04-03T08:34:18;3.38;;;1.40;;
32637;SDS011;19045;52.268;10.506;2023-04-03T08:36:45;3.13;;;1.25;;
32637;SDS011;19045;52.268;10.506;2023-04-03T08:39:13;5.32;;;1.80;;
32637;SDS011;19045;52.268;10.506;2023-04-03T08:41:42;6.45;;;2.00;;
32637;SDS011;19045;52.268;10.506;2023-04-03T08:44:14;5.70;;;1.55;;
32637;SDS011;19045;52.268;10.506;2023-04-03T08:46:56;6.15;;;1.33;;
32637;SDS011;19045;52.268;10.506;2023-04-03T08:49:31;5.30;;;1.67;;
32637;SDS011;19045;52.268;10.506;2023-04-03T08:52:01;4.03;;;1.30;;
32637;SDS011;19045;52.268;10.506;2023-04-03T08:54:32;9.45;;;1.52;;
32637;SDS011;19045;52.268;10.506;2023-04-03T08:57:03;6.53;;;1.33;;
32637;SDS011;19045;52.268;10.506;2023-04-03T08:59:32;3.47;;;1.05;;
32637;SDS011;19045;52.268;10.506;2023-04-03T09:02:01;4.07;;;1.33;;
32637;SDS011;19045;52.268;10.506;2023-04-03T09:04:41;4.32;;;1.30;;
32637;SDS011;19045;52.268;10.506;2023-04-03T09:07:08;5.72;;;1.73;;
32637;SDS011;19045;52.268;10.506;2023-04-03T09:09:42;3.88;;;1.50;;
32637;SDS011;19045;52.268;10.506;2023-04-03T09:12:17;5.10;;;1.42;;
32637;SDS011;19045;52.268;10.506;2023-04-03T09:14:51;4.68;;;1.20;;
32637;SDS011;19045;52.268;10.506;2023-04-03T09:17:26;5.07;;;1.33;;
32637;SDS011;19045;52.268;10.506;2023-04-03T09:20:06;5.57;;;1.35;;
32637;SDS011;19045;52.268;10.506;2023-04-03T09:22:45;6.88;;;1.90;;
32637;SDS011;19045;52.268;10.506;2023-04-03T09:25:14;4.40;;;1.45;;
32637;SDS011;19045;52.268;10.506;2023-04-03T09:27:45;5.45;;;1.38;;
32637;SDS011;19045;52.268;10.506;2023-04-03T09:30:13;6.50;;;1.40;;
32637;SDS011;19045;52.268;10.506;2023-04-03T09:32:41;6.13;;;1.50;;
32637;SDS011;19045;52.268;10.506;2023-04-03T09:35:17;2.78;;;1.08;;
32637;SDS011;19045;52.268;10.506;2023-04-03T09:37:47;4.70;;;1.30;;
32637;SDS011;19045;52.268;10.506;2023-04-03T09:40:28;2.95;;;1.00;;
32637;SDS011;19045;52.268;10.506;2023-04-03T09:43:22;4.00;;;1.25;;
32637;SDS011;19045;52.268;10.506;2023-04-03T09:45:51;5.63;;;1.45;;
32637;SDS011;19045;52.268;10.506;2023-04-03T09:48:19;5.00;;;1.35;;
32637;SDS011;19045;52.268;10.506;2023-04-03T09:50:55;5.15;;;1.17;;
32637;SDS011;19045;52.268;10.506;2023-04-03T09:53:26;5.68;;;1.42;;
32637;SDS011;19045;52.268;10.506;2023-04-03T09:56:04;5.22;;;1.30;;
32637;SDS011;19045;52.268;10.506;2023-04-03T09:58:46;5.90;;;1.35;;
32637;SDS011;19045;52.268;10.506;2023-04-03T10:01:25;6.53;;;1.25;;
32637;SDS011;19045;52.268;10.506;2023-04-03T10:04:05;3.78;;;1.60;;
32637;SDS011;19045;52.268;10.506;2023-04-03T10:06:35;4.97;;;1.67;;
32637;SDS011;19045;52.268;10.506;2023-04-03T10:09:06;2.22;;;1.35;;
32637;SDS011;19045;52.268;10.506;2023-04-03T10:11:50;6.20;;;1.88;;
32637;SDS011;19045;52.268;10.506;2023-04-03T10:14:54;3.97;;;1.75;;
32637;SDS011;19045;52.268;10.506;2023-04-03T10:17:23;5.63;;;2.05;;
32637;SDS011;19045;52.268;10.506;2023-04-03T10:20:02;3.63;;;2.25;;
32637;SDS011;19045;52.268;10.506;2023-04-03T10:22:45;2.70;;;1.70;;
32637;SDS011;19045;52.268;10.506;2023-04-03T10:25:26;2.80;;;1.40;;
32637;SDS011;19045;52.268;10.506;2023-04-03T10:27:59;4.03;;;1.60;;
32637;SDS011;19045;52.268;10.506;2023-04-03T10:30:33;4.68;;;1.52;;
32637;SDS011;19045;52.268;10.506;2023-04-03T10:33:11;4.20;;;1.40;;
32637;SDS011;19045;52.268;10.506;2023-04-03T10:35:49;4.55;;;1.30;;
32637;SDS011;19045;52.268;10.506;2023-04-03T10:38:29;3.47;;;1.50;;
32637;SDS011;19045;52.268;10.506;2023-04-03T10:41:04;4.20;;;1.20;;
32637;SDS011;19045;52.268;10.506;2023-04-03T10:43:36;3.58;;;1.00;;
32637;SDS011;19045;52.268;10.506;2023-04-03T10:46:11;4.53;;;0.70;;
32637;SDS011;19045;52.268;10.506;2023-04-03T10:48:53;5.18;;;0.95;;
32637;SDS011;19045;52.268;10.506;2023-04-03T10:51:32;2.28;;;0.93;;
32637;SDS011;19045;52.268;10.506;2023-04-03T10:54:05;1.75;;;0.90;;
32637;SDS011;19045;52.268;10.506;2023-04-03T10:56:39;2.78;;;1.20;;
32637;SDS011;19045;52.268;10.506;2023-04-03T10:59:12;6.10;;;0.90;;
32637;SDS011;19045;52.268;10.506;2023-04-03T11:01:47;1.92;;;0.95;;
32637;SDS011;19045;52.268;10.506;2023-04-03T11:04:18;2.72;;;1.02;;
32637;SDS011;19045;52.268;10.506;2023-04-03T11:06:48;3.83;;;1.13;;
32637;SDS011;19045;52.268;10.506;2023-04-03T11:09:19;2.72;;;1.33;;
32637;SDS011;19045;52.268;10.506;2023-04-03T11:14:22;2.22;;;0.93;;
32637;SDS011;19045;52.268;10.506;2023-04-03T11:16:56;5.18;;;1.35;;
32637;SDS011;19045;52.268;10.506;2023-04-03T11:19:38;4.38;;;1.30;;
32637;SDS011;19045;52.268;10.506;2023-04-03T11:22:10;2.38;;;1.00;;
32637;SDS011;19045;52.268;10.506;2023-04-03T11:24:41;2.73;;;1.10;;
32637;SDS011;19045;52.268;10.506;2023-04-03T11:29:43;4.95;;;1.70;;
32637;SDS011;19045;52.268;10.506;2023-04-03T11:32:20;7.05;;;1.67;;
32637;SDS011;19045;52.268;10.506;2023-04-03T11:34:58;3.63;;;1.00;;
32637;SDS011;19045;52.268;10.506;2023-04-03T11:37:29;2.05;;;0.93;;
32637;SDS011;19045;52.268;10.506;2023-04-03T11:40:01;3.35;;;0.70;;
32637;SDS011;19045;52.268;10.506;2023-04-03T11:42:33;3.60;;;0.90;;
32637;SDS011;19045;52.268;10.506;2023-04-03T11:45:22;3.70;;;1.05;;
32637;SDS011;19045;52.268;10.506;2023-04-03T11:47:57;2.92;;;1.20;;
32637;SDS011;19045;52.268;10.506;2023-04-03T11:50:31;5.15;;;0.98;;
32637;SDS011;19045;52.268;10.506;2023-04-03T12:01:43;4.50;;;1.15;;
32637;SDS011;19045;52.268;10.506;2023-04-03T12:04:13;4.30;;;1.42;;
32637;SDS011;19045;52.268;10.506;2023-04-03T12:12:42;4.45;;;1.20;;
32637;SDS011;19045;52.268;10.506;2023-04-03T12:15:26;2.47;;;1.23;;
32637;SDS011;19045;52.268;10.506;2023-04-03T12:21:19;3.88;;;1.45;;
32637;SDS011;19045;52.268;10.506;2023-04-03T12:24:01;3.08;;;1.23;;
32637;SDS011;19045;52.268;10.506;2023-04-03T12:26:32;6.28;;;1.55;;
32637;SDS011;19045;52.268;10.506;2023-04-03T12:29:10;2.08;;;1.10;;
32637;SDS011;19045;52.268;10.506;2023-04-03T12:31:45;5.78;;;1.40;;
32637;SDS011;19045;52.268;10.506;2023-04-03T12:34:24;4.55;;;1.23;;
32637;SDS011;19045;52.268;10.506;2023-04-03T12:37:08;5.50;;;1.27;;
32637;SDS011;19045;52.268;10.506;2023-04-03T12:39:55;7.57;;;1.60;;
32637;SDS011;19045;52.268;10.506;2023-04-03T12:42:35;4.00;;;1.45;;
32637;SDS011;19045;52.268;10.506;2023-04-03T12:45:17;3.03;;;1.23;;
32637;SDS011;19045;52.268;10.506;2023-04-03T12:47:45;5.75;;;1.15;;
32637;SDS011;19045;52.268;10.506;2023-04-03T12:50:20;3.75;;;1.10;;
32637;SDS011;19045;52.268;10.506;2023-04-03T12:52:54;6.13;;;1.40;;
32637;SDS011;19045;52.268;10.506;2023-04-03T12:55:25;3.65;;;1.38;;
32637;SDS011;19045;52.268;10.506;2023-04-03T12:57:52;3.60;;;1.67;;
32637;SDS011;19045;52.268;10.506;2023-04-03T13:00:20;3.85;;;1.55;;
32637;SDS011;19045;52.268;10.506;2023-04-03T13:02:52;3.63;;;1.65;;
32637;SDS011;19045;52.268;10.506;2023-04-03T13:05:19;3.40;;;1.20;;
32637;SDS011;19045;52.268;10.506;2023-04-03T13:07:48;1.88;;;0.88;;
32637;SDS011;19045;52.268;10.506;2023-04-03T13:10:20;2.22;;;1.00;;
32637;SDS011;19045;52.268;10.506;2023-04-03T13:12:47;3.75;;;1.48;;
32637;SDS011;19045;52.268;10.506;2023-04-03T13:15:17;2.83;;;1.27;;
32637;SDS011;19045;52.268;10.506;2023-04-03T13:17:45;7.53;;;1.33;;
32637;SDS011;19045;52.268;10.506;2023-04-03T13:20:14;5.88;;;1.45;;
32637;SDS011;19045;52.268;10.506;2023-04-03T13:25:16;3.17;;;1.05;;
32637;SDS011;19045;52.268;10.506;2023-04-03T13:27:47;3.45;;;1.42;;
32637;SDS011;19045;52.268;10.506;2023-04-03T13:30:21;2.88;;;1.25;;
32637;SDS011;19045;52.268;10.506;2023-04-03T13:32:51;5.03;;;1.33;;
32637;SDS011;19045;52.268;10.506;2023-04-03T13:35:26;3.13;;;1.42;;
32637;SDS011;19045;52.268;10.506;2023-04-03T13:37:55;3.42;;;1.50;;
32637;SDS011;19045;52.268;10.506;2023-04-03T13:40:23;4.40;;;1.75;;
32637;SDS011;19045;52.268;10.506;2023-04-03T13:42:59;3.38;;;1.30;;
32637;SDS011;19045;52.268;10.506;2023-04-03T13:45:28;3.83;;;1.45;;
32637;SDS011;19045;52.268;10.506;2023-04-03T13:48:07;3.17;;;1.10;;
32637;SDS011;19045;52.268;10.506;2023-04-03T13:50:50;1.88;;;1.10;;
32637;SDS011;19045;52.268;10.506;2023-04-03T13:53:19;5.93;;;1.23;;
32637;SDS011;19045;52.268;10.506;2023-04-03T13:55:54;3.13;;;1.23;;
32637;SDS011;19045;52.268;10.506;2023-04-03T13:58:28;3.65;;;1.00;;
32637;SDS011;19045;52.268;10.506;2023-04-03T14:00:58;3.05;;;1.30;;
32637;SDS011;19045;52.268;10.506;2023-04-03T14:03:34;3.70;;;1.00;;
32637;SDS011;19045;52.268;10.506;2023-04-03T14:06:08;2.83;;;1.15;;
32637;SDS011;19045;52.268;10.506;2023-04-03T14:08:38;3.13;;;1.48;;
32637;SDS011;19045;52.268;10.506;2023-04-03T14:11:04;2.72;;;1.42;;
32637;SDS011;19045;52.268;10.506;2023-04-03T14:13:33;2.88;;;1.38;;
32637;SDS011;19045;52.268;10.506;2023-04-03T14:15:59;2.55;;;1.02;;
32637;SDS011;19045;52.268;10.506;2023-04-03T14:18:26;4.32;;;1.30;;
32637;SDS011;19045;52.268;10.506;2023-04-03T14:20:53;2.65;;;1.55;;
32637;SDS011;19045;52.268;10.506;2023-04-03T14:23:19;3.35;;;1.33;;
32637;SDS011;19045;52.268;10.506;2023-04-03T14:25:47;3.08;;;1.20;;
32637;SDS011;19045;52.268;10.506;2023-04-03T14:28:16;2.60;;;1.40;;
32637;SDS011;19045;52.268;10.506;2023-04-03T14:30:46;5.95;;;1.73;;
32637;SDS011;19045;52.268;10.506;2023-04-03T14:33:14;4.68;;;1.42;;
32637;SDS011;19045;52.268;10.506;2023-04-03T14:35:42;1.98;;;1.20;;
32637;SDS011;19045;52.268;10.506;2023-04-03T14:38:16;3.63;;;1.58;;
32637;SDS011;19045;52.268;10.506;2023-04-03T14:40:48;2.75;;;1.40;;
32637;SDS011;19045;52.268;10.506;2023-04-03T14:43:15;3.15;;;1.48;;
32637;SDS011;19045;52.268;10.506;2023-04-03T14:45:42;6.03;;;1.83;;
32637;SDS011;19045;52.268;10.506;2023-04-03T14:48:12;4.40;;;1.60;;
32637;SDS011;19045;52.268;10.506;2023-04-03T14:50:44;2.33;;;1.10;;
32637;SDS011;19045;52.268;10.506;2023-04-03T14:53:11;4.60;;;1.67;;
32637;SDS011;19045;52.268;10.506;2023-04-03T14:55:39;3.85;;;1.55;;
32637;SDS011;19045;52.268;10.506;2023-04-03T14:58:08;3.30;;;1.77;;
32637;SDS011;19045;52.268;10.506;2023-04-03T15:00:37;3.63;;;1.65;;
32637;SDS011;19045;52.268;10.506;2023-04-03T15:03:05;5.88;;;2.13;;
32637;SDS011;19045;52.268;10.506;2023-04-03T15:05:34;7.03;;;1.33;;
32637;SDS011;19045;52.268;10.506;2023-04-03T15:08:02;7.38;;;1.85;;
32637;SDS011;19045;52.268;10.506;2023-04-03T15:10:30;3.08;;;1.30;;
32637;SDS011;19045;52.268;10.506;2023-04-03T15:12:57;5.88;;;1.33;;
32637;SDS011;19045;52.268;10.506;2023-04-03T15:15:27;2.88;;;1.35;;